createdAt,value
2023-05-15T00:00:16.401Z,15.56
2023-05-15T00:02:44.970Z,15.56
2023-05-15T00:05:14.077Z,15.57
2023-05-15T00:07:41.587Z,15.63
2023-05-15T00:10:08.977Z,15.57
2023-05-15T00:12:36.915Z,15.59
2023-05-15T00:15:04.541Z,15.62
2023-05-15T00:17:31.634Z,15.60
2023-05-15T00:19:59.910Z,15.60
2023-05-15T00:22:26.946Z,15.51
2023-05-15T00:24:53.922Z,15.48
2023-05-15T00:27:20.835Z,15.53
2023-05-15T00:29:47.683Z,15.54
2023-05-15T00:32:14.720Z,15.41
2023-05-15T00:34:41.678Z,15.53
2023-05-15T00:37:08.583Z,15.48
2023-05-15T00:39:36.958Z,15.43
2023-05-15T00:42:05.387Z,15.41
2023-05-15T00:44:32.665Z,15.34
2023-05-15T00:47:02.464Z,15.35
2023-05-15T00:49:30.223Z,15.34
2023-05-15T00:51:58.232Z,15.39
2023-05-15T00:54:25.687Z,15.40
2023-05-15T00:56:56.004Z,15.39
2023-05-15T00:59:26.241Z,15.30
2023-05-15T01:01:54.307Z,15.25
2023-05-15T01:04:21.861Z,15.36
2023-05-15T01:06:54.097Z,15.39
2023-05-15T01:09:24.820Z,15.29
2023-05-15T01:11:55.260Z,15.21
2023-05-15T01:14:22.208Z,15.23
2023-05-15T01:16:49.476Z,15.19
2023-05-15T01:19:16.558Z,15.19
2023-05-15T01:22:18.973Z,15.22
2023-05-15T01:25:18.656Z,15.20
2023-05-15T01:27:50.926Z,15.16
2023-05-15T01:30:23.928Z,15.17
2023-05-15T01:33:12.634Z,15.20
2023-05-15T01:36:07.181Z,15.06
2023-05-15T01:38:56.958Z,15.03
2023-05-15T01:41:33.264Z,14.99
2023-05-15T01:44:05.704Z,14.90
2023-05-15T01:46:38.607Z,14.84
2023-05-15T01:49:09.529Z,14.79
2023-05-15T01:51:39.329Z,14.85
2023-05-15T01:54:09.076Z,14.81
2023-05-15T01:56:37.090Z,14.81
2023-05-15T01:59:05.470Z,14.80
2023-05-15T02:01:33.455Z,14.73
2023-05-15T02:04:02.870Z,14.72
2023-05-15T02:06:32.396Z,14.68
2023-05-15T02:09:02.890Z,14.66
2023-05-15T02:11:30.855Z,14.60
2023-05-15T02:13:59.338Z,14.53
2023-05-15T02:16:26.309Z,14.64
2023-05-15T02:18:53.456Z,14.57
2023-05-15T02:21:20.996Z,14.41
2023-05-15T02:23:47.834Z,14.22
2023-05-15T02:26:17.916Z,14.19
2023-05-15T02:28:55.087Z,13.94
2023-05-15T02:31:38.304Z,13.98
2023-05-15T02:34:05.348Z,13.94
2023-05-15T02:36:36.993Z,13.83
2023-05-15T02:39:08.185Z,13.79
2023-05-15T02:41:37.244Z,13.80
2023-05-15T02:44:04.386Z,13.83
2023-05-15T02:46:32.551Z,13.89
2023-05-15T02:48:59.900Z,13.95
2023-05-15T02:51:27.445Z,13.97
2023-05-15T02:53:55.787Z,14.04
2023-05-15T02:56:22.831Z,14.04
2023-05-15T02:58:50.239Z,14.07
2023-05-15T03:01:17.344Z,14.10
2023-05-15T03:03:44.497Z,14.05
2023-05-15T03:06:11.315Z,14.13
2023-05-15T03:08:38.382Z,14.06
2023-05-15T03:11:05.596Z,14.05
2023-05-15T03:13:32.381Z,13.96
2023-05-15T03:15:59.616Z,14.00
2023-05-15T03:18:26.544Z,14.14
2023-05-15T03:20:53.837Z,14.18
2023-05-15T03:23:20.878Z,14.14
2023-05-15T03:25:48.173Z,14.32
2023-05-15T03:28:14.976Z,14.34
2023-05-15T03:30:45.281Z,14.46
2023-05-15T03:33:12.738Z,14.44
2023-05-15T03:35:39.832Z,14.51
2023-05-15T03:38:07.324Z,14.48
2023-05-15T03:40:34.194Z,14.52
2023-05-15T03:43:01.463Z,14.53
2023-05-15T03:45:28.778Z,14.60
2023-05-15T03:47:55.827Z,14.63
2023-05-15T03:50:23.600Z,14.64
2023-05-15T03:52:52.007Z,14.64
2023-05-15T03:55:20.315Z,14.69
2023-05-15T03:57:47.468Z,14.71
2023-05-15T04:00:15.506Z,14.75
2023-05-15T04:02:43.355Z,14.70
2023-05-15T04:05:10.863Z,14.79
2023-05-15T04:07:39.019Z,14.78
2023-05-15T04:10:07.068Z,14.77
2023-05-15T04:12:35.660Z,14.73
2023-05-15T04:15:22.473Z,14.78
2023-05-15T04:17:51.792Z,14.79
2023-05-15T04:20:22.000Z,14.85
2023-05-15T04:22:49.504Z,14.92
2023-05-15T04:25:18.201Z,15.07
2023-05-15T04:27:45.236Z,15.18
2023-05-15T04:30:13.316Z,15.32
2023-05-15T04:32:41.263Z,15.50
2023-05-15T04:35:10.868Z,15.57
2023-05-15T04:37:41.669Z,15.55
2023-05-15T04:40:10.393Z,15.76
2023-05-15T04:42:39.125Z,15.85
2023-05-15T04:45:08.167Z,16.02
2023-05-15T04:47:36.042Z,16.12
2023-05-15T04:50:03.537Z,16.14
2023-05-15T04:52:30.547Z,16.24
2023-05-15T04:54:57.679Z,16.29
2023-05-15T04:57:26.073Z,16.40
2023-05-15T04:59:53.923Z,16.44
2023-05-15T05:02:22.702Z,16.39
2023-05-15T05:04:50.232Z,16.46
2023-05-15T05:07:17.318Z,16.55
2023-05-15T05:09:45.017Z,16.69
2023-05-15T05:12:12.023Z,16.72
2023-05-15T05:14:44.767Z,16.73
2023-05-15T05:17:12.073Z,16.83
2023-05-15T05:19:39.040Z,16.93
2023-05-15T05:22:06.232Z,17.09
2023-05-15T05:24:33.349Z,17.17
2023-05-15T05:27:00.568Z,17.21
2023-05-15T05:29:27.640Z,17.37
2023-05-15T05:31:54.905Z,17.49
2023-05-15T05:34:23.021Z,17.73
2023-05-15T05:36:50.339Z,17.86
2023-05-15T05:39:17.603Z,17.99
2023-05-15T05:41:44.984Z,18.10
2023-05-15T05:44:12.257Z,18.17
2023-05-15T05:46:39.562Z,18.23
2023-05-15T05:49:06.652Z,18.23
2023-05-15T05:51:36.890Z,18.10
2023-05-15T05:54:04.097Z,18.20
2023-05-15T05:56:31.467Z,17.89
2023-05-15T05:58:59.721Z,17.90
2023-05-15T06:01:27.774Z,18.06
2023-05-15T06:03:56.108Z,18.15
2023-05-15T06:06:23.531Z,18.19
2023-05-15T06:08:50.577Z,18.09
2023-05-15T06:11:17.869Z,18.06
2023-05-15T06:13:45.156Z,18.05
2023-05-15T06:16:12.065Z,18.09
2023-05-15T06:18:39.008Z,18.15
2023-05-15T06:21:06.344Z,18.31
2023-05-15T06:23:33.214Z,18.27
2023-05-15T06:26:02.003Z,18.33
2023-05-15T06:28:29.012Z,18.39
2023-05-15T06:30:55.932Z,18.47
2023-05-15T06:33:22.979Z,18.50
2023-05-15T06:35:50.279Z,18.59
2023-05-15T06:38:17.173Z,18.65
2023-05-15T06:40:44.274Z,18.65
2023-05-15T06:43:11.316Z,18.58
2023-05-15T06:45:38.518Z,18.52
2023-05-15T06:48:05.849Z,18.68
2023-05-15T06:50:33.031Z,18.79
2023-05-15T06:53:00.648Z,19.00
2023-05-15T06:55:27.551Z,19.28
2023-05-15T06:57:54.984Z,19.21
2023-05-15T07:00:22.264Z,19.37
2023-05-15T07:02:49.374Z,19.49
2023-05-15T07:05:17.162Z,19.50
2023-05-15T07:07:44.077Z,19.48
2023-05-15T07:10:11.456Z,19.55
2023-05-15T07:12:38.608Z,19.64
2023-05-15T07:15:06.331Z,19.69
2023-05-15T07:17:34.108Z,19.68
2023-05-15T07:20:01.584Z,19.85
2023-05-15T07:22:29.335Z,19.89
2023-05-15T07:24:56.550Z,20.30
2023-05-15T07:27:23.921Z,20.44
2023-05-15T07:29:51.048Z,20.65
2023-05-15T07:32:17.902Z,20.76
2023-05-15T07:34:45.303Z,20.85
2023-05-15T07:37:12.146Z,20.80
2023-05-15T07:39:39.612Z,20.93
2023-05-15T07:42:07.071Z,20.84
2023-05-15T07:44:33.951Z,20.89
2023-05-15T07:47:00.949Z,21.07
2023-05-15T07:49:28.061Z,21.14
2023-05-15T07:51:54.961Z,21.19
2023-05-15T07:54:22.055Z,21.34
2023-05-15T07:56:49.531Z,21.47
2023-05-15T07:59:16.988Z,21.64
2023-05-15T08:01:44.109Z,21.71
2023-05-15T08:04:12.312Z,21.48
2023-05-15T08:06:39.943Z,21.64
2023-05-15T08:09:06.838Z,21.70
2023-05-15T08:11:34.005Z,21.89
2023-05-15T08:14:00.828Z,21.99
2023-05-15T08:16:27.892Z,22.09
2023-05-15T08:21:27.020Z,22.24
2023-05-15T08:23:54.717Z,22.23
2023-05-15T08:26:21.820Z,22.23
2023-05-15T08:28:48.852Z,22.25
2023-05-15T08:31:16.409Z,22.27
2023-05-15T08:33:43.751Z,22.27
2023-05-15T08:36:10.633Z,22.24
2023-05-15T08:38:40.778Z,22.21
2023-05-15T08:41:39.317Z,22.45
2023-05-15T08:44:09.449Z,22.63
2023-05-15T08:46:36.913Z,22.73
2023-05-15T08:49:12.343Z,22.94
2023-05-15T08:51:39.674Z,23.11
2023-05-15T08:54:07.078Z,23.14
2023-05-15T08:56:34.231Z,23.21
2023-05-15T08:59:01.449Z,23.27
2023-05-15T09:01:29.157Z,23.08
2023-05-15T09:03:56.279Z,23.20
2023-05-15T09:06:25.009Z,23.08
2023-05-15T09:08:56.280Z,23.18
2023-05-15T09:11:24.659Z,23.19
2023-05-15T09:13:51.742Z,23.35
2023-05-15T09:16:21.844Z,23.38
2023-05-15T09:18:50.155Z,23.36
2023-05-15T09:21:28.670Z,23.32
2023-05-15T09:24:15.355Z,23.27
2023-05-15T09:26:43.250Z,23.25
2023-05-15T09:29:10.506Z,23.50
2023-05-15T09:31:38.002Z,23.46
2023-05-15T09:34:05.994Z,23.61
2023-05-15T09:36:33.140Z,23.73
2023-05-15T09:39:01.382Z,24.06
2023-05-15T09:41:28.636Z,23.95
2023-05-15T09:43:57.108Z,23.98
2023-05-15T09:46:24.478Z,23.77
2023-05-15T09:48:55.676Z,23.57
2023-05-15T09:51:23.085Z,23.44
2023-05-15T09:53:52.262Z,23.27
2023-05-15T09:56:19.449Z,23.37
2023-05-15T09:58:57.861Z,23.52
2023-05-15T10:01:26.256Z,23.47
2023-05-15T10:04:03.791Z,23.63
2023-05-15T10:06:40.635Z,23.71
2023-05-15T10:09:09.697Z,24.00
2023-05-15T10:11:38.811Z,24.02
2023-05-15T10:14:07.084Z,24.16
2023-05-15T10:16:36.329Z,24.35
2023-05-15T10:19:08.792Z,24.37
2023-05-15T10:21:38.390Z,24.34
2023-05-15T10:24:07.179Z,24.37
2023-05-15T10:26:39.801Z,24.51
2023-05-15T10:29:10.416Z,24.55
2023-05-15T10:31:37.639Z,24.71
2023-05-15T10:34:06.067Z,24.63
2023-05-15T10:36:34.896Z,24.72
2023-05-15T10:39:06.481Z,24.76
2023-05-15T10:41:37.527Z,24.77
2023-05-15T10:44:05.104Z,24.77
2023-05-15T10:46:35.452Z,24.94
2023-05-15T10:49:02.658Z,25.10
2023-05-15T10:51:31.782Z,25.13
2023-05-15T10:54:03.917Z,25.08
2023-05-15T10:56:34.781Z,25.07
2023-05-15T10:59:10.201Z,25.16
2023-05-15T11:01:39.446Z,25.07
2023-05-15T11:04:08.199Z,24.96
2023-05-15T11:06:36.414Z,25.09
2023-05-15T11:09:21.568Z,25.22
2023-05-15T11:12:00.370Z,25.11
2023-05-15T11:14:29.118Z,24.98
2023-05-15T11:16:57.642Z,25.07
2023-05-15T11:19:36.528Z,24.85
2023-05-15T11:22:09.505Z,24.80
2023-05-15T11:24:51.325Z,24.76
2023-05-15T11:27:19.802Z,24.73
2023-05-15T11:30:15.175Z,24.69
2023-05-15T11:32:48.562Z,24.63
2023-05-15T11:35:29.232Z,24.57
2023-05-15T11:38:00.009Z,24.67
2023-05-15T11:40:32.564Z,24.69
2023-05-15T11:42:59.435Z,24.61
2023-05-15T11:45:28.541Z,24.61
2023-05-15T11:47:55.780Z,24.70
2023-05-15T11:50:25.100Z,24.66
2023-05-15T11:52:53.175Z,24.61
2023-05-15T11:55:20.750Z,24.62
2023-05-15T11:57:47.988Z,24.64
2023-05-15T12:00:15.781Z,24.66
2023-05-15T12:02:42.852Z,24.67
2023-05-15T12:05:10.616Z,24.51
2023-05-15T12:07:44.964Z,24.51
2023-05-15T12:10:13.219Z,24.50
2023-05-15T12:12:41.730Z,24.36
2023-05-15T12:15:17.186Z,24.34
2023-05-15T12:17:45.961Z,24.44
2023-05-15T12:20:17.703Z,24.56
2023-05-15T12:22:45.240Z,24.62
2023-05-15T12:25:16.578Z,24.73
2023-05-15T12:27:43.969Z,24.83
2023-05-15T12:30:13.761Z,24.89
2023-05-15T12:32:41.279Z,25.03
2023-05-15T12:35:10.118Z,25.00
2023-05-15T12:37:37.337Z,25.08
2023-05-15T12:40:12.817Z,25.10
2023-05-15T12:42:44.685Z,25.09
2023-05-15T12:45:17.165Z,25.03
2023-05-15T12:47:46.591Z,25.07
2023-05-15T12:50:19.058Z,25.07
2023-05-15T12:52:54.453Z,25.08
2023-05-15T12:55:25.971Z,24.94
2023-05-15T12:57:53.858Z,24.93
2023-05-15T13:00:23.035Z,24.76
2023-05-15T13:02:53.539Z,24.67
2023-05-15T13:05:23.540Z,24.45
2023-05-15T13:07:52.053Z,24.47
2023-05-15T13:10:23.947Z,24.30
2023-05-15T13:12:53.637Z,24.28
2023-05-15T13:15:39.034Z,24.08
2023-05-15T13:18:10.742Z,23.95
2023-05-15T13:20:41.366Z,23.85
2023-05-15T13:23:10.331Z,23.79
2023-05-15T13:25:37.730Z,23.75
2023-05-15T13:28:06.256Z,23.63
2023-05-15T13:30:34.676Z,23.46
2023-05-15T13:33:02.882Z,23.45
2023-05-15T13:35:30.195Z,23.45
2023-05-15T13:37:57.504Z,23.36
2023-05-15T13:40:24.835Z,23.37
2023-05-15T13:42:51.908Z,23.36
2023-05-15T13:45:19.168Z,23.35
2023-05-15T13:47:46.136Z,23.14
2023-05-15T13:50:15.657Z,23.14
2023-05-15T13:52:43.649Z,23.01
2023-05-15T13:55:11.500Z,22.88
2023-05-15T13:57:39.415Z,22.86
2023-05-15T14:00:11.704Z,22.87
2023-05-15T14:02:40.188Z,22.85
2023-05-15T14:05:08.488Z,22.91
2023-05-15T14:07:35.435Z,22.84
2023-05-15T14:10:02.578Z,22.90
2023-05-15T14:12:29.730Z,22.89
2023-05-15T14:14:57.331Z,22.98
2023-05-15T14:17:24.375Z,22.93
2023-05-15T14:19:51.534Z,22.83
2023-05-15T14:22:18.635Z,22.83
2023-05-15T14:24:45.562Z,22.84
2023-05-15T14:27:12.640Z,22.89
2023-05-15T14:29:39.918Z,22.91
2023-05-15T14:32:07.601Z,22.85
2023-05-15T14:34:34.515Z,22.79
2023-05-15T14:37:01.785Z,22.67
2023-05-15T14:39:28.717Z,22.76
2023-05-15T14:41:55.871Z,22.73
2023-05-15T14:44:22.708Z,22.78
2023-05-15T14:47:09.168Z,22.81
2023-05-15T14:49:37.765Z,22.79
2023-05-15T14:52:08.068Z,22.76
2023-05-15T14:54:38.216Z,22.76
2023-05-15T14:57:05.453Z,22.80
2023-05-15T14:59:32.399Z,22.89
2023-05-15T15:01:59.693Z,22.91
2023-05-15T15:04:29.599Z,22.82
2023-05-15T15:06:57.073Z,22.80
2023-05-15T15:09:26.407Z,22.72
2023-05-15T15:11:54.636Z,22.59
2023-05-15T15:14:32.789Z,22.54
2023-05-15T15:16:59.806Z,22.54
2023-05-15T15:19:26.679Z,22.46
2023-05-15T15:21:53.679Z,22.47
2023-05-15T15:24:20.914Z,22.46
2023-05-15T15:26:48.066Z,22.58
2023-05-15T15:29:15.085Z,22.61
2023-05-15T15:31:42.242Z,22.45
2023-05-15T15:34:10.247Z,22.48
2023-05-15T15:36:41.643Z,22.48
2023-05-15T15:39:08.881Z,22.34
2023-05-15T15:41:38.435Z,22.26
2023-05-15T15:44:05.659Z,22.18
2023-05-15T15:46:32.697Z,22.09
2023-05-15T15:49:00.312Z,22.03
2023-05-15T15:51:27.249Z,21.97
2023-05-15T15:53:54.278Z,21.92
2023-05-15T15:56:21.425Z,21.92
2023-05-15T15:58:48.540Z,21.88
2023-05-15T16:03:58.262Z,21.74
2023-05-15T16:06:25.309Z,21.69
2023-05-15T16:08:52.368Z,21.70
2023-05-15T16:11:19.427Z,21.69
2023-05-15T16:13:46.563Z,21.57
2023-05-15T16:19:27.020Z,21.56
2023-05-15T16:21:54.004Z,21.77
2023-05-15T16:24:21.100Z,21.78
2023-05-15T16:26:47.885Z,21.81
2023-05-15T16:29:15.050Z,21.83
2023-05-15T16:31:42.140Z,21.76
2023-05-15T16:34:09.317Z,21.83
2023-05-15T16:36:36.246Z,21.73
2023-05-15T16:39:12.766Z,21.67
2023-05-15T16:41:47.083Z,21.44
2023-05-15T16:44:13.967Z,21.46
2023-05-15T16:46:41.054Z,21.46
2023-05-15T16:49:08.566Z,21.44
2023-05-15T16:51:35.544Z,21.45
2023-05-15T16:54:02.705Z,21.29
2023-05-15T16:56:41.998Z,21.23
2023-05-15T16:59:09.150Z,21.20
2023-05-15T17:01:35.927Z,21.07
2023-05-15T17:04:03.342Z,20.96
2023-05-15T17:06:30.605Z,20.89
2023-05-15T17:08:57.625Z,20.86
2023-05-15T17:11:33.610Z,20.77
2023-05-15T17:14:01.066Z,20.54
2023-05-15T17:16:34.305Z,20.52
2023-05-15T17:19:01.415Z,20.41
2023-05-15T17:21:28.269Z,20.19
2023-05-15T17:23:56.364Z,20.29
2023-05-15T17:26:23.949Z,20.08
2023-05-15T17:28:50.749Z,20.02
2023-05-15T17:31:17.822Z,20.05
2023-05-15T17:33:45.996Z,19.95
2023-05-15T17:36:14.657Z,19.99
2023-05-15T17:38:41.434Z,19.77
2023-05-15T17:41:08.358Z,19.71
2023-05-15T17:43:35.703Z,19.76
2023-05-15T17:46:03.833Z,19.66
2023-05-15T17:48:53.723Z,19.60
2023-05-15T17:52:13.921Z,19.44
2023-05-15T17:54:41.178Z,19.32
2023-05-15T17:57:08.256Z,19.21
2023-05-15T17:59:35.120Z,19.22
2023-05-15T18:02:02.414Z,19.21
2023-05-15T18:04:29.284Z,19.10
2023-05-15T18:06:56.205Z,19.04
2023-05-15T18:09:24.312Z,18.96
2023-05-15T18:11:52.034Z,18.94
2023-05-15T18:14:18.964Z,18.96
2023-05-15T18:16:45.900Z,18.88
2023-05-15T18:19:12.958Z,18.71
2023-05-15T18:21:39.981Z,18.75
2023-05-15T18:24:07.230Z,18.75
2023-05-15T18:26:34.373Z,18.63
2023-05-15T18:29:01.278Z,18.53
2023-05-15T18:31:30.277Z,18.54
2023-05-15T18:33:57.079Z,18.45
2023-05-15T18:36:24.255Z,18.35
2023-05-15T18:39:02.629Z,18.37
2023-05-15T18:41:29.817Z,18.31
2023-05-15T18:43:56.788Z,18.26
2023-05-15T18:46:25.814Z,18.23
2023-05-15T18:48:52.728Z,18.14
2023-05-15T18:51:19.737Z,18.18
2023-05-15T18:53:46.579Z,18.06
2023-05-15T18:56:13.475Z,18.04
2023-05-15T18:58:40.421Z,17.99
2023-05-15T19:01:07.368Z,17.93
2023-05-15T19:03:37.274Z,17.91
2023-05-15T19:06:04.265Z,17.84
2023-05-15T19:08:31.078Z,17.81
2023-05-15T19:11:00.642Z,17.79
2023-05-15T19:13:30.718Z,17.69
2023-05-15T19:15:57.825Z,17.60
2023-05-15T19:18:24.702Z,17.55
2023-05-15T19:20:52.195Z,17.58
2023-05-15T19:23:20.744Z,17.55
2023-05-15T19:25:47.882Z,17.59
2023-05-15T19:28:15.364Z,17.46
2023-05-15T19:30:42.706Z,17.41
2023-05-15T19:33:09.908Z,17.32
2023-05-15T19:35:37.611Z,17.38
2023-05-15T19:38:05.140Z,17.36
2023-05-15T19:44:26.537Z,17.27
2023-05-15T19:46:59.798Z,17.23
2023-05-15T19:49:26.755Z,17.17
2023-05-15T19:51:53.718Z,17.14
2023-05-15T19:54:20.498Z,17.17
2023-05-15T19:56:47.412Z,17.15
2023-05-15T19:59:14.209Z,17.04
2023-05-15T20:01:41.708Z,17.00
2023-05-15T20:04:08.767Z,16.99
2023-05-15T20:06:36.396Z,16.90
2023-05-15T20:09:04.673Z,16.94
2023-05-15T20:11:31.749Z,17.02
2023-05-15T20:13:58.813Z,16.88
2023-05-15T20:16:25.710Z,16.89
2023-05-15T20:18:55.381Z,16.80
2023-05-15T20:21:22.451Z,16.78
2023-05-15T20:23:49.476Z,16.77
2023-05-15T20:26:16.418Z,16.75
2023-05-15T20:28:45.176Z,16.82
2023-05-15T20:31:12.369Z,16.66
2023-05-15T20:33:39.747Z,16.68
2023-05-15T20:36:06.798Z,16.72
2023-05-15T20:38:33.932Z,16.65
2023-05-15T20:41:01.201Z,16.61
2023-05-15T20:43:28.026Z,16.60
2023-05-15T20:45:55.215Z,16.59
2023-05-15T20:48:22.305Z,16.58
2023-05-15T20:50:53.172Z,16.55
2023-05-15T20:53:20.373Z,16.51
2023-05-15T20:55:47.314Z,16.38
2023-05-15T20:58:14.231Z,16.34
2023-05-15T21:00:41.227Z,16.25
2023-05-15T21:03:11.897Z,16.19
2023-05-15T21:05:39.108Z,16.18
2023-05-15T21:08:06.044Z,16.20
2023-05-15T21:10:32.952Z,16.30
2023-05-15T21:12:59.752Z,16.22
2023-05-15T21:15:26.738Z,16.20
2023-05-15T21:17:53.758Z,16.22
2023-05-15T21:20:20.694Z,16.26
2023-05-15T21:22:47.535Z,16.31
2023-05-15T21:25:15.880Z,16.33
2023-05-15T21:27:42.906Z,16.28
2023-05-15T21:30:10.476Z,16.24
2023-05-15T21:32:37.316Z,16.13
2023-05-15T21:35:04.605Z,16.09
2023-05-15T21:37:31.472Z,16.15
2023-05-15T21:39:58.381Z,16.05
2023-05-15T21:42:26.480Z,16.09
2023-05-15T21:44:53.534Z,16.04
2023-05-15T21:47:20.504Z,16.02
2023-05-15T21:49:47.533Z,15.98
2023-05-15T21:52:14.397Z,15.97
2023-05-15T21:54:41.500Z,16.03
2023-05-15T21:57:08.431Z,15.99
2023-05-15T21:59:35.683Z,15.94
2023-05-15T22:02:02.483Z,15.84
2023-05-15T22:04:30.352Z,15.81
2023-05-15T22:06:57.551Z,15.84
2023-05-15T22:09:24.522Z,15.79
2023-05-15T22:11:51.768Z,15.71
2023-05-15T22:14:18.914Z,15.79
2023-05-15T22:16:45.814Z,15.78
2023-05-15T22:19:28.486Z,15.83
2023-05-15T22:22:00.350Z,15.81
2023-05-15T22:24:27.361Z,15.83
2023-05-15T22:26:54.311Z,15.86
2023-05-15T22:29:21.448Z,15.83
2023-05-15T22:31:48.774Z,15.83
2023-05-15T22:34:15.798Z,15.81
2023-05-15T22:36:42.643Z,15.82
2023-05-15T22:39:09.585Z,15.72
2023-05-15T22:41:36.638Z,15.61
2023-05-15T22:44:03.604Z,15.57
2023-05-15T22:46:30.746Z,15.47
2023-05-15T22:49:00.520Z,15.27
2023-05-15T22:51:28.521Z,15.28
2023-05-15T22:53:55.806Z,15.22
2023-05-15T22:56:22.777Z,15.21
2023-05-15T22:58:49.913Z,15.19
2023-05-15T23:01:17.118Z,15.07
2023-05-15T23:03:44.399Z,15.04
2023-05-15T23:06:16.701Z,14.99
2023-05-15T23:08:44.081Z,15.01
2023-05-15T23:11:11.229Z,14.90
2023-05-15T23:13:38.057Z,14.97
2023-05-15T23:16:05.929Z,14.95
2023-05-15T23:18:33.121Z,14.91
2023-05-15T23:20:59.982Z,14.96
2023-05-15T23:23:27.024Z,14.92
2023-05-15T23:25:53.840Z,15.00
2023-05-15T23:28:21.324Z,14.94
2023-05-15T23:30:48.371Z,15.02
2023-05-15T23:33:15.468Z,15.00
2023-05-15T23:35:43.328Z,15.23
2023-05-15T23:38:10.403Z,15.12
2023-05-15T23:40:37.335Z,15.15
2023-05-15T23:43:04.442Z,15.04
2023-05-15T23:45:31.212Z,15.00
2023-05-15T23:47:58.505Z,14.92
2023-05-15T23:50:25.652Z,14.86
2023-05-15T23:52:52.646Z,14.95
2023-05-15T23:55:19.654Z,15.00
2023-05-15T23:57:48.436Z,14.78
